• Join FlightAware (Why Join?)
  • Login
  • US Flag 
11:19AM EDT


 

Airport Tracker/Info


-or-


 

Live Flight TrackerFlight Track Log ✈ KCE2 ✈ 12-May-2013 ✈ CYSJ - KALB

Flight Track Log - Related Links

Times and Time Zones

All times are in EDT time to prevent confusion due to time zone crossing. See the KCE2 flight status page for this flight to view local times or setup timezone preferences in your user account.

Time Position Orientation Groundspeed Altitude Reporting Facility
EDT Latitude Longitude Course Direction KTS MPH feet Rate Location/Type
04:34PM 45.2050 -66.1180 248° West 272 313 12,500  Level FlightAware
04:35PM 45.1840 -66.1950 249° West 276 318 15,400 3,600 Climbing FlightAware
04:35PM 45.1660 -66.2610 249° West 280 322 17,600 3,420 Climbing FlightAware
04:36PM 45.1470 -66.3310 249° West 282 325 20,000 3,240 Climbing FlightAware
04:37PM 45.1250 -66.4100 248° West 291 335 22,200 2,640 Climbing FlightAware
04:38PM 45.1000 -66.4800 243° Southwest 294 338 23,800 2,280 Climbing FlightAware
04:38PM 45.0670 -66.5550 238° Southwest 310 357 25,500 2,100 Climbing FlightAware
04:39PM 45.0350 -66.6280 238° Southwest 327 376 26,800 1,920 Climbing FlightAware
04:40PM 45.0110 -66.7090 247° West 345 397 28,100 2,040 Climbing FlightAware
04:40PM 44.9850 -66.8050 249° West 344 396 29,700 1,920 Climbing FlightAware
04:41PM 44.9610 -66.8890 248° West 350 403 30,900 1,920 Climbing FlightAware
04:42PM 44.9340 -66.9850 248° West 347 399 32,500 2,040 Climbing FlightAware
04:42PM 44.9110 -67.0690 249° West 344 396 33,800 1,980 Climbing FlightAware
04:43PM 44.8880 -67.1520 249° West 337 388 35,200 1,680 Climbing FlightAware
04:44PM 44.8610 -67.2440 248° West 344 396 36,200 1,320 Climbing FlightAware
04:45PM 44.8370 -67.3290 248° West 346 398 37,100 1,320 Climbing FlightAware
04:45PM 44.8110 -67.4220 249° West 345 397 38,100 1,260 Climbing FlightAware
04:46PM 44.7870 -67.5050 248° West 341 392 38,900 1,260 Climbing FlightAware
04:47PM 44.7640 -67.5860 248° West 332 382 39,800 720 Climbing FlightAware
04:47PM 44.7370 -67.6790 248° West 346 398 40,000 120 Climbing FlightAware
04:48PM 44.7130 -67.7640 248° West 356 410 40,000  Level FlightAware
04:49PM 44.6880 -67.8490 248° West 359 413 40,000  Level FlightAware
04:49PM 44.6590 -67.9480 248° West 363 418 40,000  Level FlightAware
04:50PM 44.6340 -68.0360 248° West 362 417 40,000  Level FlightAware
04:51PM 44.6050 -68.1350 248° West 361 415 40,000  Level FlightAware
04:52PM 44.5790 -68.2210 247° West 362 417 40,000  Level FlightAware
04:52PM 44.5500 -68.3210 248° West 366 421 40,000  Level FlightAware
04:53PM 44.5240 -68.4090 248° West 368 423 40,000  Level FlightAware
04:54PM 44.4950 -68.5070 247° West 369 425 40,000  Level FlightAware
04:54PM 44.4680 -68.5980 247° West 370 426 40,000  Level FlightAware
04:55PM 44.4410 -68.6870 247° West 372 428 40,000  Level FlightAware
04:56PM 44.4110 -68.7860 247° West 374 430 40,000  Level FlightAware
04:56PM 44.3870 -68.8660 247° West 376 433 40,000  Level FlightAware
04:57PM 44.3590 -68.9590 247° West 376 433 40,000  Level FlightAware
04:58PM 44.3300 -69.0550 247° West 376 433 40,000  Level FlightAware
04:59PM 44.3000 -69.1540 247° West 377 434 40,000  Level FlightAware
04:59PM 44.2720 -69.2440 247° West 378 435 40,000  Level FlightAware
05:00PM 44.2430 -69.3380 247° West 376 433 40,000  Level FlightAware
05:01PM 44.2150 -69.4320 247° West 375 432 40,000  Level FlightAware
05:01PM 44.1840 -69.5320 247° West 373 429 40,000  Level FlightAware
05:02PM 44.1560 -69.6200 246° West 374 430 40,000  Level FlightAware
05:03PM 44.1260 -69.7180 247° West 374 430 40,000  Level FlightAware
05:03PM 44.0980 -69.8050 246° West 374 430 40,000  Level FlightAware
05:04PM 44.0740 -69.8830 247° West 374 430 40,000  Level FlightAware
05:05PM 44.0390 -69.9950 247° West 375 432 40,000  Level FlightAware
05:06PM 44.0110 -70.0840 246° West 377 434 40,000  Level FlightAware
05:06PM 43.9800 -70.1820 246° West 379 436 40,000  Level FlightAware
05:07PM 43.9510 -70.2710 246° West 379 436 40,000  Level FlightAware
05:08PM 43.9190 -70.3730 246° West 380 437 40,000  Level FlightAware
05:08PM 43.8900 -70.4620 246° West 381 438 40,000  Level FlightAware
05:09PM 43.8620 -70.5500 246° West 380 437 40,000  Level FlightAware
05:10PM 43.8300 -70.6490 246° West 379 436 40,000  Level FlightAware
05:10PM 43.8020 -70.7360 246° West 377 434 40,000  Level FlightAware
05:11PM 43.7730 -70.8250 246° West 377 434 40,000  Level FlightAware
05:12PM 43.7400 -70.9260 246° West 376 433 40,000  Level FlightAware
05:13PM 43.7120 -71.0130 246° West 376 433 40,000  Level FlightAware
05:13PM 43.6800 -71.1100 246° West 377 434 40,000  Level FlightAware
05:14PM 43.6510 -71.1950 245° Southwest 379 436 40,000 -540 Level FlightAware
05:15PM 43.6230 -71.2830 246° West 373 429 39,300 -1,680 Descending FlightAware
05:15PM 43.5900 -71.3810 245° Southwest 370 426 37,700 -2,100 Descending FlightAware
05:16PM 43.5610 -71.4680 245° Southwest 371 427 36,400 -1,920 Descending FlightAware
05:17PM 43.5290 -71.5640 245° Southwest 377 434 35,000 -1,980 Descending FlightAware
05:17PM 43.5000 -71.6510 245° Southwest 378 435 33,600 -2,100 Descending FlightAware
05:18PM 43.4660 -71.7510 245° Southwest 363 418 32,100 -1,980 Descending FlightAware
05:19PM 43.4390 -71.8320 245° Southwest 364 419 30,800 -1,980 Descending FlightAware
05:20PM 43.4100 -71.9170 245° Southwest 374 430 29,500 -1,980 Descending FlightAware
05:20PM 43.3770 -72.0150 245° Southwest 380 437 28,000 -1,980 Descending FlightAware
05:21PM 43.3480 -72.1010 245° Southwest 380 437 26,700 -1,980 Descending FlightAware
05:22PM 43.3140 -72.1990 245° Southwest 363 418 25,200 -1,920 Descending FlightAware
05:22PM 43.2860 -72.2810 245° Southwest 350 403 24,000 -1,860 Descending FlightAware
05:23PM 43.2560 -72.3690 245° Southwest 342 394 22,600 -1,800 Descending FlightAware
05:24PM 43.2310 -72.4390 244° Southwest 333 383 21,600 -1,680 Descending FlightAware
05:24PM 43.2030 -72.5220 245° Southwest 325 374 20,400 -1,620 Descending FlightAware
05:25PM 43.1740 -72.6050 244° Southwest 326 375 19,200 -1,620 Descending FlightAware
05:26PM 43.1530 -72.6670 245° Southwest 333 383 18,300 -720 Descending FlightAware
05:27PM 43.1250 -72.7440 244° Southwest 333 383 18,300  Level FlightAware
05:27PM 43.1020 -72.8090 244° Southwest 333 383 18,300  Level FlightAware
05:28PM 43.0790 -72.8730 244° Southwest 333 383 18,300  Level FlightAware
05:29PM 43.0500 -72.9540 244° Southwest 333 383 18,300  Level FlightAware
05:29PM 43.0270 -73.0180 244° Southwest 333 383 18,300 -5,100 Level FlightAware
05:30PM 42.9794 -73.1608 244° Southwest 281 323 10,400 -7,140 Descending Boston Center
05:31PM 42.9689 -73.1836 238° Southwest 296 341 10,000 -1,980 Descending Boston Center
05:31PM 42.9456 -73.2514 245° Southwest 260 299 8,400 -1,800 Descending Boston Center
05:32PM 42.9414 -73.2625 243° Southwest 274 315 8,200 -1,620 Descending Boston Center
05:32PM 42.9178 -73.3358 246° West 246 283 6,800 -1,800 Descending Boston Center
05:33PM 42.9094 -73.3556 240° Southwest 256 295 6,400 -1,320 Descending Boston Center
05:33PM 42.8858 -73.4206 244° Southwest 246 283 5,500 -1,200 Descending Boston Center
05:34PM 42.8817 -73.4347 248° West 256 295 5,200 -1,140 Descending Boston Center
05:35PM 42.8453 -73.5331 243° Southwest 263 303 4,100 -1,080 Descending Boston Center
05:35PM 42.8092 -73.6061 236° Southwest 261 300 3,200 -900 Descending Boston Center
05:37PM 42.7583 -73.6758 225° Southwest 258 297 2,400 -720 Descending Boston Center
05:38PM 42.7306 -73.7347 237° Southwest 217 250 1,700 -720 Descending Boston Center